createdAt,value
2023-04-18T00:01:10.097Z,97136.89
2023-04-18T00:03:41.735Z,97135.70
2023-04-18T00:06:14.708Z,97139.34
2023-04-18T00:08:46.330Z,97144.27
2023-04-18T00:11:16.529Z,97141.22
2023-04-18T00:13:48.349Z,97141.56
2023-04-18T00:16:20.058Z,97141.54
2023-04-18T00:18:54.842Z,97142.45
2023-04-18T00:21:26.399Z,97142.74
2023-04-18T00:23:57.578Z,97145.46
2023-04-18T00:26:28.787Z,97146.88
2023-04-18T00:29:00.522Z,97144.44
2023-04-18T00:31:30.808Z,97145.59
2023-04-18T00:34:01.858Z,97142.98
2023-04-18T00:36:33.119Z,97142.87
2023-04-18T00:39:04.368Z,97142.04
2023-04-18T00:41:36.130Z,97141.69
2023-04-18T00:44:06.604Z,97138.80
2023-04-18T00:46:37.683Z,97139.65
2023-04-18T00:49:08.525Z,97136.92
2023-04-18T00:51:39.597Z,97141.98
2023-04-18T00:54:13.821Z,97137.82
2023-04-18T00:56:44.904Z,97135.37
2023-04-18T00:59:15.385Z,97135.80
2023-04-18T01:01:48.689Z,97134.50
2023-04-18T01:04:20.584Z,97135.08
2023-04-18T01:06:51.818Z,97133.20
2023-04-18T01:09:23.679Z,97130.56
2023-04-18T01:11:55.894Z,97134.96
2023-04-18T01:14:33.495Z,97130.85
2023-04-18T01:17:12.542Z,97130.59
2023-04-18T01:19:44.694Z,97130.91
2023-04-18T01:22:18.340Z,97131.05
2023-04-18T01:24:49.464Z,97131.41
2023-04-18T01:27:21.966Z,97136.55
2023-04-18T01:29:52.787Z,97134.06
2023-04-18T01:32:25.283Z,97135.74
2023-04-18T01:34:56.236Z,97134.66
2023-04-18T01:37:25.832Z,97132.11
2023-04-18T01:39:56.573Z,97134.20
2023-04-18T01:42:26.854Z,97135.15
2023-04-18T01:44:57.554Z,97136.03
2023-04-18T01:47:27.530Z,97134.00
2023-04-18T01:49:57.728Z,97136.84
2023-04-18T01:52:29.165Z,97132.93
2023-04-18T01:55:02.538Z,97134.37
2023-04-18T01:57:32.491Z,97138.43
2023-04-18T02:00:03.039Z,97137.95
2023-04-18T02:02:33.998Z,97138.09
2023-04-18T02:05:04.465Z,97139.52
2023-04-18T02:07:34.544Z,97141.62
2023-04-18T02:10:05.029Z,97140.41
2023-04-18T02:12:37.330Z,97140.79
2023-04-18T02:15:09.928Z,97145.48
2023-04-18T02:17:40.717Z,97140.92
2023-04-18T02:20:12.564Z,97145.46
2023-04-18T02:22:45.648Z,97146.40
2023-04-18T02:25:15.073Z,97143.02
2023-04-18T02:27:46.495Z,97144.42
2023-04-18T02:30:17.135Z,97147.87
2023-04-18T02:32:51.678Z,97149.44
2023-04-18T02:35:28.794Z,97149.29
2023-04-18T02:38:03.342Z,97153.58
2023-04-18T02:40:34.469Z,97152.98
2023-04-18T02:43:05.584Z,97151.02
2023-04-18T02:45:39.095Z,97153.12
2023-04-18T02:48:09.657Z,97150.29
2023-04-18T02:50:43.143Z,97151.33
2023-04-18T02:53:14.733Z,97145.20
2023-04-18T02:55:56.463Z,97143.67
2023-04-18T02:58:30.834Z,97144.71
2023-04-18T03:01:13.654Z,97141.99
2023-04-18T03:03:54.804Z,97143.68
2023-04-18T03:06:35.259Z,97145.86
2023-04-18T03:09:06.110Z,97148.23
2023-04-18T03:11:38.523Z,97146.11
2023-04-18T03:14:08.319Z,97143.02
2023-04-18T03:16:50.446Z,97142.86
2023-04-18T03:19:25.638Z,97142.53
2023-04-18T03:21:56.674Z,97146.28
2023-04-18T03:24:26.717Z,97144.64
2023-04-18T03:26:58.537Z,97142.53
2023-04-18T03:29:29.073Z,97140.42
2023-04-18T03:31:59.430Z,97143.46
2023-04-18T03:34:29.656Z,97145.69
2023-04-18T03:37:00.293Z,97142.58
2023-04-18T03:39:30.645Z,97142.39
2023-04-18T03:42:00.543Z,97143.64
2023-04-18T03:44:30.251Z,97148.28
2023-04-18T03:47:00.868Z,97145.35
2023-04-18T03:49:31.581Z,97147.20
2023-04-18T03:52:01.502Z,97151.43
2023-04-18T03:54:31.118Z,97153.33
2023-04-18T03:57:00.431Z,97158.02
2023-04-18T03:59:31.052Z,97155.06
2023-04-18T04:02:01.628Z,97156.94
2023-04-18T04:04:32.670Z,97161.20
2023-04-18T04:07:02.181Z,97162.56
2023-04-18T04:09:31.982Z,97162.63
2023-04-18T04:12:03.634Z,97159.63
2023-04-18T04:14:33.815Z,97162.23
2023-04-18T04:17:03.717Z,97163.08
2023-04-18T04:19:33.598Z,97162.64
2023-04-18T04:22:15.652Z,97169.17
2023-04-18T04:24:47.140Z,97171.89
2023-04-18T04:27:19.384Z,97173.52
2023-04-18T04:29:50.211Z,97175.80
2023-04-18T04:32:21.033Z,97180.91
2023-04-18T04:34:50.827Z,97186.11
2023-04-18T04:37:21.205Z,97185.69
2023-04-18T04:40:01.843Z,97185.52
2023-04-18T04:42:44.242Z,97189.23
2023-04-18T04:45:20.178Z,97185.62
2023-04-18T04:47:50.716Z,97181.52
2023-04-18T04:50:19.824Z,97185.41
2023-04-18T04:52:49.356Z,97184.30
2023-04-18T04:55:19.368Z,97186.14
2023-04-18T04:57:48.245Z,97186.48
2023-04-18T05:00:47.316Z,97190.25
2023-04-18T05:03:17.336Z,97190.16
2023-04-18T05:05:46.637Z,97191.09
2023-04-18T05:08:15.767Z,97196.51
2023-04-18T05:10:46.234Z,97194.23
2023-04-18T05:13:15.273Z,97194.52
2023-04-18T05:15:44.352Z,97192.63
2023-04-18T05:18:14.791Z,97190.98
2023-04-18T05:20:44.278Z,97192.05
2023-04-18T05:23:13.488Z,97195.02
2023-04-18T05:25:42.999Z,97199.92
2023-04-18T05:28:11.770Z,97201.73
2023-04-18T05:30:41.283Z,97200.63
2023-04-18T05:33:10.059Z,97199.70
2023-04-18T05:35:39.841Z,97198.54
2023-04-18T05:38:09.187Z,97199.38
2023-04-18T05:40:38.272Z,97195.67
2023-04-18T05:43:07.160Z,97200.29
2023-04-18T05:45:35.958Z,97202.77
2023-04-18T05:48:05.018Z,97199.25
2023-04-18T05:50:33.829Z,97199.59
2023-04-18T05:53:02.728Z,97194.82
2023-04-18T05:55:31.821Z,97191.99
2023-04-18T05:58:01.230Z,97195.99
2023-04-18T06:00:30.213Z,97197.80
2023-04-18T06:02:59.160Z,97196.60
2023-04-18T06:05:28.758Z,97197.19
2023-04-18T06:07:58.109Z,97200.91
2023-04-18T06:10:27.101Z,97201.64
2023-04-18T06:12:55.682Z,97201.91
2023-04-18T06:15:25.509Z,97202.65
2023-04-18T06:17:54.532Z,97201.14
2023-04-18T06:20:23.525Z,97201.23
2023-04-18T06:22:52.090Z,97202.59
2023-04-18T06:25:21.173Z,97200.18
2023-04-18T06:27:50.050Z,97201.75
2023-04-18T06:30:22.291Z,97200.49
2023-04-18T06:32:51.352Z,97202.13
2023-04-18T06:35:20.249Z,97204.83
2023-04-18T06:37:49.508Z,97202.17
2023-04-18T06:40:18.166Z,97202.20
2023-04-18T06:42:47.100Z,97200.68
2023-04-18T06:45:16.076Z,97204.41
2023-04-18T06:47:45.455Z,97206.29
2023-04-18T06:50:15.306Z,97204.75
2023-04-18T06:52:47.354Z,97203.27
2023-04-18T06:55:16.047Z,97198.64
2023-04-18T06:57:45.047Z,97202.91
2023-04-18T07:00:14.698Z,97203.56
2023-04-18T07:02:43.932Z,97203.95
2023-04-18T07:05:13.138Z,97204.67
2023-04-18T07:07:41.838Z,97202.87
2023-04-18T07:10:11.866Z,97203.90
2023-04-18T07:12:40.664Z,97202.17
2023-04-18T07:15:10.191Z,97198.98
2023-04-18T07:17:39.009Z,97200.08
2023-04-18T07:20:08.697Z,97201.47
2023-04-18T07:22:38.048Z,97204.37
2023-04-18T07:25:07.239Z,97206.84
2023-04-18T07:27:37.454Z,97209.79
2023-04-18T07:30:07.007Z,97208.95
2023-04-18T07:32:35.905Z,97205.23
2023-04-18T07:35:05.576Z,97199.66
2023-04-18T07:37:34.649Z,97202.02
2023-04-18T07:40:04.829Z,97201.77
2023-04-18T07:42:33.657Z,97207.33
2023-04-18T07:45:02.943Z,97205.64
2023-04-18T07:47:32.596Z,97210.24
2023-04-18T07:50:03.255Z,97210.74
2023-04-18T07:52:31.883Z,97210.45
2023-04-18T07:55:00.666Z,97212.37
2023-04-18T07:57:29.674Z,97209.37
2023-04-18T07:59:58.460Z,97213.66
2023-04-18T08:02:27.350Z,97213.33
2023-04-18T08:04:56.744Z,97217.38
2023-04-18T08:07:25.956Z,97215.86
2023-04-18T08:09:55.139Z,97214.94
2023-04-18T08:12:24.355Z,97211.44
2023-04-18T08:14:53.848Z,97213.31
2023-04-18T08:17:23.679Z,97212.21
2023-04-18T08:19:52.345Z,97214.02
2023-04-18T08:22:21.636Z,97216.45
2023-04-18T08:25:03.856Z,97215.67
2023-04-18T08:27:34.476Z,97216.55
2023-04-18T08:30:05.056Z,97212.19
2023-04-18T08:32:33.933Z,97212.91
2023-04-18T08:35:04.518Z,97211.19
2023-04-18T08:37:35.686Z,97209.52
2023-04-18T08:40:09.049Z,97216.26
2023-04-18T08:42:38.806Z,97216.92
2023-04-18T08:45:09.678Z,97212.30
2023-04-18T08:47:38.429Z,97206.65
2023-04-18T08:50:09.482Z,97207.55
2023-04-18T08:52:40.093Z,97210.57
2023-04-18T08:55:10.600Z,97208.80
2023-04-18T08:57:40.115Z,97205.11
2023-04-18T09:00:12.190Z,97205.23
2023-04-18T09:02:43.064Z,97207.58
2023-04-18T09:05:19.350Z,97207.27
2023-04-18T09:07:49.840Z,97205.11
2023-04-18T09:10:36.192Z,97205.85
2023-04-18T09:13:04.886Z,97205.48
2023-04-18T09:15:34.799Z,97204.20
2023-04-18T09:18:10.765Z,97203.64
2023-04-18T09:20:44.874Z,97202.91
2023-04-18T09:23:25.182Z,97204.73
2023-04-18T09:25:54.929Z,97202.58
2023-04-18T09:28:29.462Z,97199.41
2023-04-18T09:31:18.391Z,97195.42
2023-04-18T09:33:57.566Z,97194.33
2023-04-18T09:36:28.066Z,97188.86
2023-04-18T09:38:57.555Z,97188.45
2023-04-18T09:41:27.551Z,97190.88
2023-04-18T09:44:15.382Z,97198.52
2023-04-18T09:46:47.403Z,97193.20
2023-04-18T09:49:18.930Z,97192.22
2023-04-18T09:51:51.227Z,97186.61
2023-04-18T09:54:24.114Z,97190.51
2023-04-18T09:56:54.551Z,97188.96
2023-04-18T09:59:49.517Z,97188.73
2023-04-18T10:02:23.156Z,97188.81
2023-04-18T10:04:54.697Z,97184.02
2023-04-18T10:07:26.133Z,97183.68
2023-04-18T10:09:54.917Z,97186.16
2023-04-18T10:12:25.969Z,97186.76
2023-04-18T10:14:55.254Z,97185.23
2023-04-18T10:17:24.286Z,97181.50
2023-04-18T10:20:13.132Z,97181.98
2023-04-18T10:22:41.778Z,97183.55
2023-04-18T10:25:11.410Z,97179.95
2023-04-18T10:27:49.153Z,97179.96
2023-04-18T10:30:19.159Z,97179.39
2023-04-18T10:32:47.845Z,97179.36
2023-04-18T10:35:17.318Z,97178.10
2023-04-18T10:37:52.964Z,97176.98
2023-04-18T10:40:34.862Z,97180.29
2023-04-18T10:43:03.836Z,97173.83
2023-04-18T10:45:36.736Z,97177.96
2023-04-18T10:48:26.506Z,97174.15
2023-04-18T10:51:19.415Z,97176.67
2023-04-18T10:53:57.876Z,97172.94
2023-04-18T10:56:28.454Z,97167.66
2023-04-18T10:59:02.726Z,97168.94
2023-04-18T11:01:33.364Z,97171.44
2023-04-18T11:04:02.421Z,97166.86
2023-04-18T11:06:31.811Z,97166.46
2023-04-18T11:09:11.751Z,97172.14
2023-04-18T11:11:40.701Z,97173.68
2023-04-18T11:14:10.139Z,97171.73
2023-04-18T11:16:40.078Z,97168.45
2023-04-18T11:19:20.404Z,97170.02
2023-04-18T11:21:49.587Z,97166.71
2023-04-18T11:24:24.747Z,97166.52
2023-04-18T11:26:56.457Z,97162.14
2023-04-18T11:29:25.143Z,97158.19
2023-04-18T11:31:57.501Z,97156.29
2023-04-18T11:34:32.758Z,97156.80
2023-04-18T11:37:08.302Z,97155.05
2023-04-18T11:39:44.074Z,97154.80
2023-04-18T11:42:12.743Z,97151.64
2023-04-18T11:44:46.734Z,97150.87
2023-04-18T11:47:29.178Z,97147.92
2023-04-18T11:50:04.136Z,97142.46
2023-04-18T11:52:34.523Z,97141.50
2023-04-18T11:55:17.986Z,97145.86
2023-04-18T11:58:01.708Z,97142.05
2023-04-18T12:00:39.076Z,97143.64
2023-04-18T12:03:19.133Z,97136.69
2023-04-18T12:05:48.501Z,97132.94
2023-04-18T12:08:21.315Z,97133.57
2023-04-18T12:10:52.966Z,97129.67
2023-04-18T12:13:27.013Z,97132.23
2023-04-18T12:15:56.617Z,97128.74
2023-04-18T12:18:25.678Z,97126.52
2023-04-18T12:20:54.785Z,97125.93
2023-04-18T12:23:39.334Z,97126.02
2023-04-18T12:26:15.573Z,97129.18
2023-04-18T12:28:51.866Z,97126.98
2023-04-18T12:31:22.094Z,97128.05
2023-04-18T12:33:51.175Z,97121.31
2023-04-18T12:36:24.096Z,97124.50
2023-04-18T12:38:52.967Z,97123.36
2023-04-18T12:41:21.727Z,97121.02
2023-04-18T12:43:50.429Z,97117.94
2023-04-18T12:46:19.366Z,97118.23
2023-04-18T12:48:48.199Z,97119.00
2023-04-18T12:51:17.097Z,97116.08
2023-04-18T12:53:46.492Z,97118.23
2023-04-18T12:56:15.892Z,97116.16
2023-04-18T12:58:44.886Z,97116.77
2023-04-18T13:01:14.438Z,97115.78
2023-04-18T13:03:45.618Z,97113.20
2023-04-18T13:06:18.221Z,97118.40
2023-04-18T13:08:47.728Z,97115.08
2023-04-18T13:11:18.349Z,97116.27
2023-04-18T13:13:47.550Z,97117.13
2023-04-18T13:16:16.604Z,97115.03
2023-04-18T13:18:45.838Z,97111.73
2023-04-18T13:21:14.535Z,97110.89
2023-04-18T13:23:43.321Z,97109.30
2023-04-18T13:26:12.490Z,97109.89
2023-04-18T13:28:41.096Z,97107.40
2023-04-18T13:31:09.788Z,97107.19
2023-04-18T13:33:40.518Z,97104.80
2023-04-18T13:36:09.555Z,97105.30
2023-04-18T13:38:38.703Z,97107.27
2023-04-18T13:41:12.878Z,97102.73
2023-04-18T13:43:42.328Z,97103.39
2023-04-18T13:46:12.078Z,97101.84
2023-04-18T13:48:41.030Z,97102.55
2023-04-18T13:51:09.712Z,97106.42
2023-04-18T13:53:38.925Z,97103.52
2023-04-18T13:56:08.108Z,97101.38
2023-04-18T13:58:36.793Z,97100.97
2023-04-18T14:01:05.933Z,97101.69
2023-04-18T14:03:36.417Z,97098.41
2023-04-18T14:06:07.055Z,97100.64
2023-04-18T14:08:36.148Z,97099.31
2023-04-18T14:11:05.032Z,97104.27
2023-04-18T14:13:33.664Z,97107.27
2023-04-18T14:16:02.432Z,97104.55
2023-04-18T14:18:31.599Z,97105.95
2023-04-18T14:21:00.632Z,97104.02
2023-04-18T14:23:29.428Z,97099.76
2023-04-18T14:25:58.245Z,97099.41
2023-04-18T14:28:27.883Z,97100.39
2023-04-18T14:30:58.135Z,97100.40
2023-04-18T14:33:26.805Z,97104.83
2023-04-18T14:35:56.095Z,97098.63
2023-04-18T14:38:24.770Z,97098.37
2023-04-18T14:40:54.699Z,97097.17
2023-04-18T14:43:23.337Z,97099.58
2023-04-18T14:45:52.563Z,97100.86
2023-04-18T14:48:21.627Z,97105.36
2023-04-18T14:50:58.444Z,97102.33
2023-04-18T14:53:27.451Z,97104.24
2023-04-18T14:55:56.704Z,97102.59
2023-04-18T14:58:26.143Z,97105.45
2023-04-18T15:00:55.189Z,97105.86
2023-04-18T15:03:24.017Z,97108.98
2023-04-18T15:05:53.635Z,97109.46
2023-04-18T15:08:22.721Z,97103.52
2023-04-18T15:10:51.505Z,97108.54
2023-04-18T15:13:20.805Z,97105.85
2023-04-18T15:15:54.430Z,97101.45
2023-04-18T15:18:23.313Z,97102.19
2023-04-18T15:20:52.124Z,97103.13
2023-04-18T15:23:21.130Z,97105.95
2023-04-18T15:25:49.970Z,97107.19
2023-04-18T15:28:19.782Z,97104.63
2023-04-18T15:30:48.385Z,97105.73
2023-04-18T15:33:19.509Z,97106.47
2023-04-18T15:35:48.503Z,97103.88
2023-04-18T15:38:17.405Z,97100.14
2023-04-18T15:40:46.264Z,97101.55
2023-04-18T15:43:17.391Z,97104.92
2023-04-18T15:45:47.241Z,97102.58
2023-04-18T15:48:15.935Z,97098.92
2023-04-18T15:50:50.984Z,97098.45
2023-04-18T15:53:19.952Z,97101.10
2023-04-18T15:55:48.534Z,97100.19
2023-04-18T15:58:17.797Z,97102.17
2023-04-18T16:00:47.038Z,97099.55
2023-04-18T16:03:16.157Z,97100.80
2023-04-18T16:05:44.907Z,97103.93
2023-04-18T16:08:13.699Z,97104.00
2023-04-18T16:10:43.651Z,97103.52
2023-04-18T16:13:12.510Z,97106.71
2023-04-18T16:15:44.254Z,97104.00
2023-04-18T16:18:13.261Z,97107.89
2023-04-18T16:20:42.305Z,97106.78
2023-04-18T16:23:11.468Z,97105.13
2023-04-18T16:25:40.433Z,97103.20
2023-04-18T16:28:09.018Z,97101.20
2023-04-18T16:30:38.020Z,97100.25
2023-04-18T16:33:06.838Z,97098.56
2023-04-18T16:35:35.898Z,97103.34
2023-04-18T16:38:05.309Z,97100.25
2023-04-18T16:40:35.322Z,97102.48
2023-04-18T16:43:03.910Z,97103.36
2023-04-18T16:45:33.608Z,97104.02
2023-04-18T16:48:02.299Z,97104.40
2023-04-18T16:50:31.394Z,97107.24
2023-04-18T16:52:59.974Z,97108.02
2023-04-18T16:55:28.709Z,97111.92
2023-04-18T16:57:57.233Z,97115.35
2023-04-18T17:00:26.050Z,97114.06
2023-04-18T17:02:56.243Z,97120.84
2023-04-18T17:05:26.368Z,97121.66
2023-04-18T17:07:58.476Z,97120.05
2023-04-18T17:10:30.230Z,97120.80
2023-04-18T17:12:59.587Z,97118.95
2023-04-18T17:15:28.209Z,97119.58
2023-04-18T17:18:00.466Z,97116.61
2023-04-18T17:20:29.247Z,97119.21
2023-04-18T17:22:57.860Z,97120.66
2023-04-18T17:25:26.258Z,97115.36
2023-04-18T17:27:54.790Z,97119.63
2023-04-18T17:30:23.610Z,97121.38
2023-04-18T17:32:53.053Z,97125.02
2023-04-18T17:35:22.208Z,97129.20
2023-04-18T17:37:53.167Z,97129.60
2023-04-18T17:40:24.143Z,97133.85
2023-04-18T17:42:52.666Z,97133.20
2023-04-18T17:45:21.651Z,97139.77
2023-04-18T17:47:51.079Z,97142.52
2023-04-18T17:50:19.975Z,97143.30
2023-04-18T17:52:48.541Z,97143.95
2023-04-18T17:55:17.177Z,97145.05
2023-04-18T17:57:45.867Z,97147.05
2023-04-18T18:00:15.057Z,97151.48
2023-04-18T18:02:44.915Z,97150.38
2023-04-18T18:05:14.811Z,97150.41
2023-04-18T18:07:48.228Z,97148.73
2023-04-18T18:10:23.901Z,97147.95
2023-04-18T18:12:53.021Z,97147.35
2023-04-18T18:15:21.561Z,97145.77
2023-04-18T18:17:50.915Z,97148.90
2023-04-18T18:20:20.108Z,97145.77
2023-04-18T18:22:48.663Z,97146.40
2023-04-18T18:25:17.397Z,97145.00
2023-04-18T18:27:45.953Z,97144.02
2023-04-18T18:30:14.861Z,97151.11
2023-04-18T18:32:43.907Z,97150.12
2023-04-18T18:35:13.120Z,97151.52
2023-04-18T18:37:41.698Z,97151.25
2023-04-18T18:40:10.722Z,97151.27
2023-04-18T18:42:42.744Z,97152.41
2023-04-18T18:45:11.223Z,97153.57
2023-04-18T18:47:40.217Z,97150.86
2023-04-18T18:50:09.672Z,97152.70
2023-04-18T18:52:40.912Z,97155.89
2023-04-18T18:55:10.977Z,97154.22
2023-04-18T18:57:39.576Z,97152.39
2023-04-18T19:00:12.381Z,97149.98
2023-04-18T19:02:41.204Z,97148.30
2023-04-18T19:05:12.884Z,97148.77
2023-04-18T19:07:44.591Z,97147.05
2023-04-18T19:10:13.378Z,97145.34
2023-04-18T19:12:42.026Z,97146.44
2023-04-18T19:15:11.889Z,97141.91
2023-04-18T19:17:40.727Z,97141.64
2023-04-18T19:20:09.878Z,97140.34
2023-04-18T19:22:38.547Z,97135.50
2023-04-18T19:25:07.976Z,97135.25
2023-04-18T19:27:36.513Z,97137.27
2023-04-18T19:30:05.790Z,97135.25
2023-04-18T19:32:34.595Z,97137.80
2023-04-18T19:35:03.224Z,97135.45
2023-04-18T19:37:32.102Z,97132.55
2023-04-18T19:40:01.421Z,97136.39
2023-04-18T19:42:29.964Z,97135.98
2023-04-18T19:45:00.541Z,97134.28
2023-04-18T19:47:34.082Z,97140.15
2023-04-18T19:50:02.988Z,97139.83
2023-04-18T19:52:31.548Z,97136.75
2023-04-18T19:55:00.191Z,97137.16
2023-04-18T19:57:29.878Z,97133.81
2023-04-18T19:59:58.420Z,97133.64
2023-04-18T20:02:27.077Z,97130.14
2023-04-18T20:04:56.038Z,97131.05
2023-04-18T20:07:26.277Z,97129.80
2023-04-18T20:09:55.095Z,97130.80
2023-04-18T20:12:23.911Z,97129.35
2023-04-18T20:14:52.762Z,97127.30
2023-04-18T20:17:21.871Z,97127.13
2023-04-18T20:19:51.342Z,97123.73
2023-04-18T20:22:20.077Z,97122.45
2023-04-18T20:24:49.515Z,97121.40
2023-04-18T20:27:20.766Z,97126.92
2023-04-18T20:29:49.656Z,97125.80
2023-04-18T20:32:19.069Z,97124.98
2023-04-18T20:34:48.682Z,97121.32
2023-04-18T20:37:20.117Z,97123.23
2023-04-18T20:39:49.101Z,97124.48
2023-04-18T20:42:18.906Z,97123.09
2023-04-18T20:44:47.905Z,97119.95
2023-04-18T20:47:16.436Z,97118.29
2023-04-18T20:49:45.030Z,97119.13
2023-04-18T20:52:14.575Z,97118.27
2023-04-18T20:54:43.269Z,97116.37
2023-04-18T20:57:11.994Z,97114.34
2023-04-18T20:59:40.914Z,97112.33
2023-04-18T21:02:10.005Z,97111.16
2023-04-18T21:04:39.123Z,97110.34
2023-04-18T21:07:07.795Z,97108.66
2023-04-18T21:09:37.289Z,97109.05
2023-04-18T21:12:06.577Z,97108.86
2023-04-18T21:14:35.388Z,97105.43
2023-04-18T21:17:04.308Z,97101.64
2023-04-18T21:19:33.398Z,97101.84
2023-04-18T21:22:02.416Z,97100.14
2023-04-18T21:24:31.104Z,97097.58
2023-04-18T21:26:59.958Z,97093.70
2023-04-18T21:29:28.808Z,97094.34
2023-04-18T21:31:58.232Z,97095.67
2023-04-18T21:34:27.779Z,97091.27
2023-04-18T21:36:58.053Z,97093.71
2023-04-18T21:39:28.312Z,97090.73
2023-04-18T21:41:58.403Z,97092.58
2023-04-18T21:44:27.121Z,97098.20
2023-04-18T21:46:56.964Z,97097.73
2023-04-18T21:49:25.981Z,97095.92
2023-04-18T21:51:55.642Z,97091.04
2023-04-18T21:54:24.675Z,97086.52
2023-04-18T21:56:53.506Z,97087.33
2023-04-18T21:59:22.944Z,97081.05
2023-04-18T22:01:51.834Z,97080.14
2023-04-18T22:04:22.521Z,97085.78
2023-04-18T22:06:55.896Z,97083.72
2023-04-18T22:09:24.749Z,97080.98
2023-04-18T22:11:57.137Z,97077.98
2023-04-18T22:14:26.611Z,97078.67
2023-04-18T22:16:55.714Z,97080.39
2023-04-18T22:19:25.199Z,97078.42
2023-04-18T22:21:54.605Z,97077.38
2023-04-18T22:24:24.918Z,97074.55
2023-04-18T22:26:53.917Z,97075.05
2023-04-18T22:29:23.011Z,97069.16
2023-04-18T22:31:51.959Z,97066.98
2023-04-18T22:34:20.912Z,97068.38
2023-04-18T22:36:49.844Z,97064.69
2023-04-18T22:39:18.738Z,97064.38
2023-04-18T22:41:47.901Z,97061.45
2023-04-18T22:44:17.658Z,97061.95
2023-04-18T22:46:48.531Z,97060.64
2023-04-18T22:49:18.882Z,97061.37
2023-04-18T22:51:49.488Z,97058.00
2023-04-18T22:54:19.105Z,97058.45
2023-04-18T22:56:50.650Z,97058.63
2023-04-18T22:59:19.829Z,97056.23
2023-04-18T23:01:48.695Z,97050.03
2023-04-18T23:04:17.975Z,97045.89
2023-04-18T23:06:47.394Z,97043.25
2023-04-18T23:09:20.148Z,97041.30
2023-04-18T23:11:49.886Z,97039.45
2023-04-18T23:14:19.443Z,97038.91
2023-04-18T23:16:49.078Z,97035.95
2023-04-18T23:19:21.062Z,97037.25
2023-04-18T23:21:50.027Z,97033.69
2023-04-18T23:24:18.671Z,97028.61
2023-04-18T23:26:47.937Z,97025.46
2023-04-18T23:29:17.877Z,97020.45
2023-04-18T23:31:47.602Z,97021.86
2023-04-18T23:34:16.968Z,97018.33
2023-04-18T23:36:47.383Z,97023.33
2023-04-18T23:39:19.323Z,97019.68
2023-04-18T23:41:49.724Z,97020.64
2023-04-18T23:44:20.779Z,97018.63
2023-04-18T23:46:51.216Z,97016.23
2023-04-18T23:49:22.160Z,97016.23
2023-04-18T23:51:52.240Z,97014.23
2023-04-18T23:54:22.907Z,97012.92
2023-04-18T23:56:53.109Z,97013.66
2023-04-18T23:59:22.868Z,97010.69
